sensor_id;sensor_type;location;lat;lon;timestamp;temperature;humidity
26721;HTU21D;15950;51.112;6.966;2023-04-15T00:00:45;9.29;60.30
26721;HTU21D;15950;51.112;6.966;2023-04-15T00:03:45;9.25;60.54
26721;HTU21D;15950;51.112;6.966;2023-04-15T00:06:50;9.25;60.72
26721;HTU21D;15950;51.112;6.966;2023-04-15T00:09:45;9.26;61.00
26721;HTU21D;15950;51.112;6.966;2023-04-15T00:12:45;9.15;61.05
26721;HTU21D;15950;51.112;6.966;2023-04-15T00:15:45;9.17;60.74
26721;HTU21D;15950;51.112;6.966;2023-04-15T00:18:45;9.22;60.58
26721;HTU21D;15950;51.112;6.966;2023-04-15T00:21:45;9.19;60.47
26721;HTU21D;15950;51.112;6.966;2023-04-15T00:24:45;9.23;60.45
26721;HTU21D;15950;51.112;6.966;2023-04-15T00:27:45;9.14;60.55
26721;HTU21D;15950;51.112;6.966;2023-04-15T00:30:45;9.16;60.80
26721;HTU21D;15950;51.112;6.966;2023-04-15T00:33:45;9.20;60.46
26721;HTU21D;15950;51.112;6.966;2023-04-15T00:36:45;9.25;60.60
26721;HTU21D;15950;51.112;6.966;2023-04-15T00:39:45;9.10;60.99
26721;HTU21D;15950;51.112;6.966;2023-04-15T00:42:45;9.16;60.89
26721;HTU21D;15950;51.112;6.966;2023-04-15T00:45:45;9.23;60.99
26721;HTU21D;15950;51.112;6.966;2023-04-15T00:48:45;9.26;60.70
26721;HTU21D;15950;51.112;6.966;2023-04-15T00:51:45;9.27;60.79
26721;HTU21D;15950;51.112;6.966;2023-04-15T00:54:45;9.26;60.89
26721;HTU21D;15950;51.112;6.966;2023-04-15T00:57:45;9.33;60.75
26721;HTU21D;15950;51.112;6.966;2023-04-15T01:00:45;9.39;60.85
26721;HTU21D;15950;51.112;6.966;2023-04-15T01:03:45;9.37;61.13
26721;HTU21D;15950;51.112;6.966;2023-04-15T01:06:45;9.42;61.33
26721;HTU21D;15950;51.112;6.966;2023-04-15T01:09:45;9.41;62.02
26721;HTU21D;15950;51.112;6.966;2023-04-15T01:12:45;9.54;62.33
26721;HTU21D;15950;51.112;6.966;2023-04-15T01:15:45;9.52;62.53
26721;HTU21D;15950;51.112;6.966;2023-04-15T01:18:45;9.27;63.53
26721;HTU21D;15950;51.112;6.966;2023-04-15T01:21:45;9.35;63.48
26721;HTU21D;15950;51.112;6.966;2023-04-15T01:24:53;9.44;63.34
26721;HTU21D;15950;51.112;6.966;2023-04-15T01:27:45;9.25;63.75
26721;HTU21D;15950;51.112;6.966;2023-04-15T01:30:45;9.23;63.60
26721;HTU21D;15950;51.112;6.966;2023-04-15T01:33:45;9.37;63.46
26721;HTU21D;15950;51.112;6.966;2023-04-15T01:36:45;9.09;63.95
26721;HTU21D;15950;51.112;6.966;2023-04-15T01:39:45;8.89;64.65
26721;HTU21D;15950;51.112;6.966;2023-04-15T01:42:45;8.98;63.98
26721;HTU21D;15950;51.112;6.966;2023-04-15T01:45:45;8.97;64.43
26721;HTU21D;15950;51.112;6.966;2023-04-15T01:48:45;8.90;64.42
26721;HTU21D;15950;51.112;6.966;2023-04-15T01:51:45;8.93;64.74
26721;HTU21D;15950;51.112;6.966;2023-04-15T01:54:45;8.91;64.36
26721;HTU21D;15950;51.112;6.966;2023-04-15T01:57:45;8.68;65.59
26721;HTU21D;15950;51.112;6.966;2023-04-15T02:00:45;8.59;65.99
26721;HTU21D;15950;51.112;6.966;2023-04-15T02:03:45;8.67;65.53
26721;HTU21D;15950;51.112;6.966;2023-04-15T02:06:45;8.58;65.47
26721;HTU21D;15950;51.112;6.966;2023-04-15T02:09:45;8.60;65.44
26721;HTU21D;15950;51.112;6.966;2023-04-15T02:12:45;8.17;66.65
26721;HTU21D;15950;51.112;6.966;2023-04-15T02:15:49;8.28;66.95
26721;HTU21D;15950;51.112;6.966;2023-04-15T02:18:46;8.46;66.53
26721;HTU21D;15950;51.112;6.966;2023-04-15T02:21:45;8.21;66.86
26721;HTU21D;15950;51.112;6.966;2023-04-15T02:24:45;8.47;66.30
26721;HTU21D;15950;51.112;6.966;2023-04-15T02:27:45;8.28;66.61
26721;HTU21D;15950;51.112;6.966;2023-04-15T02:30:49;7.90;67.23
26721;HTU21D;15950;51.112;6.966;2023-04-15T02:33:45;7.73;67.73
26721;HTU21D;15950;51.112;6.966;2023-04-15T02:36:45;8.17;66.85
26721;HTU21D;15950;51.112;6.966;2023-04-15T02:39:45;8.25;66.10
26721;HTU21D;15950;51.112;6.966;2023-04-15T02:42:45;8.28;65.86
26721;HTU21D;15950;51.112;6.966;2023-04-15T02:45:45;8.12;66.07
26721;HTU21D;15950;51.112;6.966;2023-04-15T02:48:45;7.93;67.15
26721;HTU21D;15950;51.112;6.966;2023-04-15T02:51:45;8.12;66.28
26721;HTU21D;15950;51.112;6.966;2023-04-15T02:54:45;8.14;66.05
26721;HTU21D;15950;51.112;6.966;2023-04-15T02:57:45;7.75;66.88
26721;HTU21D;15950;51.112;6.966;2023-04-15T03:00:45;7.87;67.35
26721;HTU21D;15950;51.112;6.966;2023-04-15T03:03:45;7.49;67.38
26721;HTU21D;15950;51.112;6.966;2023-04-15T03:06:45;7.30;68.92
26721;HTU21D;15950;51.112;6.966;2023-04-15T03:09:45;7.14;69.54
26721;HTU21D;15950;51.112;6.966;2023-04-15T03:12:45;7.61;68.41
26721;HTU21D;15950;51.112;6.966;2023-04-15T03:15:46;7.69;67.81
26721;HTU21D;15950;51.112;6.966;2023-04-15T03:18:45;7.83;67.43
26721;HTU21D;15950;51.112;6.966;2023-04-15T03:21:45;7.19;68.28
26721;HTU21D;15950;51.112;6.966;2023-04-15T03:24:45;7.17;69.41
26721;HTU21D;15950;51.112;6.966;2023-04-15T03:27:45;7.21;69.83
26721;HTU21D;15950;51.112;6.966;2023-04-15T03:30:45;7.44;69.07
26721;HTU21D;15950;51.112;6.966;2023-04-15T03:33:45;7.52;68.62
26721;HTU21D;15950;51.112;6.966;2023-04-15T03:36:45;7.60;68.20
26721;HTU21D;15950;51.112;6.966;2023-04-15T03:39:45;7.38;68.24
26721;HTU21D;15950;51.112;6.966;2023-04-15T03:42:45;7.30;68.75
26721;HTU21D;15950;51.112;6.966;2023-04-15T03:45:45;7.09;69.84
26721;HTU21D;15950;51.112;6.966;2023-04-15T03:48:46;7.08;69.75
26721;HTU21D;15950;51.112;6.966;2023-04-15T03:51:45;6.90;70.48
26721;HTU21D;15950;51.112;6.966;2023-04-15T03:54:45;7.20;69.61
26721;HTU21D;15950;51.112;6.966;2023-04-15T03:57:45;7.01;69.96
26721;HTU21D;15950;51.112;6.966;2023-04-15T04:00:45;6.93;70.49
26721;HTU21D;15950;51.112;6.966;2023-04-15T04:03:45;6.91;70.58
26721;HTU21D;15950;51.112;6.966;2023-04-15T04:06:45;6.97;70.53
26721;HTU21D;15950;51.112;6.966;2023-04-15T04:09:45;6.51;71.58
26721;HTU21D;15950;51.112;6.966;2023-04-15T04:12:45;6.67;71.90
26721;HTU21D;15950;51.112;6.966;2023-04-15T04:15:45;6.22;71.89
26721;HTU21D;15950;51.112;6.966;2023-04-15T04:18:45;6.33;72.61
26721;HTU21D;15950;51.112;6.966;2023-04-15T04:21:45;6.28;73.49
26721;HTU21D;15950;51.112;6.966;2023-04-15T04:24:45;6.06;73.88
26721;HTU21D;15950;51.112;6.966;2023-04-15T04:27:45;6.29;73.17
26721;HTU21D;15950;51.112;6.966;2023-04-15T04:30:45;6.52;72.76
26721;HTU21D;15950;51.112;6.966;2023-04-15T04:33:45;6.60;72.19
26721;HTU21D;15950;51.112;6.966;2023-04-15T04:36:45;6.51;71.67
26721;HTU21D;15950;51.112;6.966;2023-04-15T04:39:45;6.41;71.93
26721;HTU21D;15950;51.112;6.966;2023-04-15T04:42:45;6.32;72.03
26721;HTU21D;15950;51.112;6.966;2023-04-15T04:45:45;6.56;71.75
26721;HTU21D;15950;51.112;6.966;2023-04-15T04:48:45;6.57;72.03
26721;HTU21D;15950;51.112;6.966;2023-04-15T04:51:45;6.66;71.77
26721;HTU21D;15950;51.112;6.966;2023-04-15T04:54:45;6.66;71.74
26721;HTU21D;15950;51.112;6.966;2023-04-15T04:57:45;6.44;71.77
26721;HTU21D;15950;51.112;6.966;2023-04-15T05:00:45;6.44;72.25
26721;HTU21D;15950;51.112;6.966;2023-04-15T05:03:45;6.14;73.39
26721;HTU21D;15950;51.112;6.966;2023-04-15T05:06:45;6.04;73.71
26721;HTU21D;15950;51.112;6.966;2023-04-15T05:09:45;6.25;73.79
26721;HTU21D;15950;51.112;6.966;2023-04-15T05:12:45;6.17;74.05
26721;HTU21D;15950;51.112;6.966;2023-04-15T05:15:45;6.27;73.90
26721;HTU21D;15950;51.112;6.966;2023-04-15T05:18:45;6.36;73.09
26721;HTU21D;15950;51.112;6.966;2023-04-15T05:21:45;6.45;72.93
26721;HTU21D;15950;51.112;6.966;2023-04-15T05:24:45;6.13;73.56
26721;HTU21D;15950;51.112;6.966;2023-04-15T05:27:45;5.99;74.24
26721;HTU21D;15950;51.112;6.966;2023-04-15T05:30:45;6.06;74.71
26721;HTU21D;15950;51.112;6.966;2023-04-15T05:33:45;6.17;74.85
26721;HTU21D;15950;51.112;6.966;2023-04-15T05:36:45;6.31;74.36
26721;HTU21D;15950;51.112;6.966;2023-04-15T05:39:45;6.20;74.99
26721;HTU21D;15950;51.112;6.966;2023-04-15T05:42:45;6.37;75.04
26721;HTU21D;15950;51.112;6.966;2023-04-15T05:45:45;6.60;74.63
26721;HTU21D;15950;51.112;6.966;2023-04-15T05:48:45;6.94;73.38
26721;HTU21D;15950;51.112;6.966;2023-04-15T05:51:46;6.95;73.73
26721;HTU21D;15950;51.112;6.966;2023-04-15T05:54:45;7.02;74.09
26721;HTU21D;15950;51.112;6.966;2023-04-15T05:57:45;7.04;74.44
26721;HTU21D;15950;51.112;6.966;2023-04-15T06:00:45;7.13;74.76
26721;HTU21D;15950;51.112;6.966;2023-04-15T06:03:45;7.30;74.61
26721;HTU21D;15950;51.112;6.966;2023-04-15T06:06:45;7.59;73.91
26721;HTU21D;15950;51.112;6.966;2023-04-15T06:09:45;7.72;73.41
26721;HTU21D;15950;51.112;6.966;2023-04-15T06:12:45;7.87;72.45
26721;HTU21D;15950;51.112;6.966;2023-04-15T06:15:45;8.12;72.40
26721;HTU21D;15950;51.112;6.966;2023-04-15T06:18:45;8.22;72.09
26721;HTU21D;15950;51.112;6.966;2023-04-15T06:21:45;8.31;70.90
26721;HTU21D;15950;51.112;6.966;2023-04-15T06:24:45;8.14;72.39
26721;HTU21D;15950;51.112;6.966;2023-04-15T06:27:45;8.22;72.80
26721;HTU21D;15950;51.112;6.966;2023-04-15T06:30:45;8.04;73.37
26721;HTU21D;15950;51.112;6.966;2023-04-15T06:33:45;8.44;72.48
26721;HTU21D;15950;51.112;6.966;2023-04-15T06:36:45;8.23;73.52
26721;HTU21D;15950;51.112;6.966;2023-04-15T06:39:45;8.22;72.96
26721;HTU21D;15950;51.112;6.966;2023-04-15T06:42:45;8.29;72.72
26721;HTU21D;15950;51.112;6.966;2023-04-15T06:45:45;8.39;72.52
26721;HTU21D;15950;51.112;6.966;2023-04-15T06:48:45;8.43;72.32
26721;HTU21D;15950;51.112;6.966;2023-04-15T06:51:45;8.68;72.06
26721;HTU21D;15950;51.112;6.966;2023-04-15T06:54:45;9.11;71.38
26721;HTU21D;15950;51.112;6.966;2023-04-15T06:57:45;9.25;70.87
26721;HTU21D;15950;51.112;6.966;2023-04-15T07:00:45;9.44;70.47
26721;HTU21D;15950;51.112;6.966;2023-04-15T07:03:45;9.89;70.78
26721;HTU21D;15950;51.112;6.966;2023-04-15T07:06:45;10.07;69.54
26721;HTU21D;15950;51.112;6.966;2023-04-15T07:09:45;10.38;68.55
26721;HTU21D;15950;51.112;6.966;2023-04-15T07:12:45;10.50;66.99
26721;HTU21D;15950;51.112;6.966;2023-04-15T07:15:45;10.70;66.11
26721;HTU21D;15950;51.112;6.966;2023-04-15T07:18:45;10.70;65.78
26721;HTU21D;15950;51.112;6.966;2023-04-15T07:21:46;10.81;65.27
26721;HTU21D;15950;51.112;6.966;2023-04-15T07:24:45;11.25;64.53
26721;HTU21D;15950;51.112;6.966;2023-04-15T07:27:45;11.50;63.21
26721;HTU21D;15950;51.112;6.966;2023-04-15T07:30:45;11.53;62.19
26721;HTU21D;15950;51.112;6.966;2023-04-15T07:33:45;11.62;62.01
26721;HTU21D;15950;51.112;6.966;2023-04-15T07:36:45;11.52;61.50
26721;HTU21D;15950;51.112;6.966;2023-04-15T07:39:45;11.52;61.75
26721;HTU21D;15950;51.112;6.966;2023-04-15T07:42:45;11.53;60.44
26721;HTU21D;15950;51.112;6.966;2023-04-15T07:45:45;11.50;60.00
26721;HTU21D;15950;51.112;6.966;2023-04-15T07:48:45;11.63;60.04
26721;HTU21D;15950;51.112;6.966;2023-04-15T07:51:45;11.38;60.13
26721;HTU21D;15950;51.112;6.966;2023-04-15T07:54:45;11.30;60.05
26721;HTU21D;15950;51.112;6.966;2023-04-15T07:57:45;11.15;60.72
26721;HTU21D;15950;51.112;6.966;2023-04-15T08:00:45;11.26;61.18
26721;HTU21D;15950;51.112;6.966;2023-04-15T08:03:45;11.30;62.15
26721;HTU21D;15950;51.112;6.966;2023-04-15T08:06:45;11.21;62.17
26721;HTU21D;15950;51.112;6.966;2023-04-15T08:09:45;11.35;62.08
26721;HTU21D;15950;51.112;6.966;2023-04-15T08:12:45;11.53;61.97
26721;HTU21D;15950;51.112;6.966;2023-04-15T08:15:45;11.57;61.43
26721;HTU21D;15950;51.112;6.966;2023-04-15T08:18:47;11.50;61.14
26721;HTU21D;15950;51.112;6.966;2023-04-15T08:21:45;11.26;60.80
26721;HTU21D;15950;51.112;6.966;2023-04-15T08:24:45;11.62;60.16
26721;HTU21D;15950;51.112;6.966;2023-04-15T08:27:45;11.55;59.73
26721;HTU21D;15950;51.112;6.966;2023-04-15T08:30:45;11.51;59.73
26721;HTU21D;15950;51.112;6.966;2023-04-15T08:33:45;11.82;59.77
26721;HTU21D;15950;51.112;6.966;2023-04-15T08:36:45;11.76;59.50
26721;HTU21D;15950;51.112;6.966;2023-04-15T08:39:45;11.37;59.70
26721;HTU21D;15950;51.112;6.966;2023-04-15T08:42:48;11.69;59.27
26721;HTU21D;15950;51.112;6.966;2023-04-15T08:45:46;11.39;59.78
26721;HTU21D;15950;51.112;6.966;2023-04-15T08:48:47;11.39;59.84
26721;HTU21D;15950;51.112;6.966;2023-04-15T08:51:45;11.42;60.35
26721;HTU21D;15950;51.112;6.966;2023-04-15T08:54:45;11.31;60.49
26721;HTU21D;15950;51.112;6.966;2023-04-15T08:57:45;11.41;60.83
26721;HTU21D;15950;51.112;6.966;2023-04-15T09:00:45;11.37;60.91
26721;HTU21D;15950;51.112;6.966;2023-04-15T09:03:50;11.72;60.67
26721;HTU21D;15950;51.112;6.966;2023-04-15T09:06:46;11.75;59.86
26721;HTU21D;15950;51.112;6.966;2023-04-15T09:09:45;11.61;60.29
26721;HTU21D;15950;51.112;6.966;2023-04-15T09:12:45;11.76;60.35
26721;HTU21D;15950;51.112;6.966;2023-04-15T09:15:45;11.39;60.77
26721;HTU21D;15950;51.112;6.966;2023-04-15T09:18:45;11.67;60.51
26721;HTU21D;15950;51.112;6.966;2023-04-15T09:21:46;11.33;61.02
26721;HTU21D;15950;51.112;6.966;2023-04-15T09:24:45;11.32;61.70
26721;HTU21D;15950;51.112;6.966;2023-04-15T09:27:49;11.27;62.31
26721;HTU21D;15950;51.112;6.966;2023-04-15T09:30:45;11.53;61.99
26721;HTU21D;15950;51.112;6.966;2023-04-15T09:33:54;11.71;61.70
26721;HTU21D;15950;51.112;6.966;2023-04-15T09:39:50;11.90;61.27
26721;HTU21D;15950;51.112;6.966;2023-04-15T09:42:53;12.06;61.07
26721;HTU21D;15950;51.112;6.966;2023-04-15T09:48:45;11.95;60.37
26721;HTU21D;15950;51.112;6.966;2023-04-15T09:51:45;12.18;60.41
26721;HTU21D;15950;51.112;6.966;2023-04-15T09:54:45;12.53;60.57
26721;HTU21D;15950;51.112;6.966;2023-04-15T09:57:45;11.87;59.99
26721;HTU21D;15950;51.112;6.966;2023-04-15T10:00:47;11.85;61.11
26721;HTU21D;15950;51.112;6.966;2023-04-15T10:03:45;11.60;61.70
26721;HTU21D;15950;51.112;6.966;2023-04-15T10:06:45;12.27;60.76
26721;HTU21D;15950;51.112;6.966;2023-04-15T10:09:45;12.33;60.57
26721;HTU21D;15950;51.112;6.966;2023-04-15T10:12:45;12.41;60.69
26721;HTU21D;15950;51.112;6.966;2023-04-15T10:18:50;12.89;59.82
26721;HTU21D;15950;51.112;6.966;2023-04-15T10:21:45;12.55;59.99
26721;HTU21D;15950;51.112;6.966;2023-04-15T10:24:46;12.78;59.77
26721;HTU21D;15950;51.112;6.966;2023-04-15T10:27:45;12.56;60.19
26721;HTU21D;15950;51.112;6.966;2023-04-15T10:30:45;11.97;60.76
26721;HTU21D;15950;51.112;6.966;2023-04-15T10:33:46;11.95;61.57
26721;HTU21D;15950;51.112;6.966;2023-04-15T10:36:45;12.22;60.66
26721;HTU21D;15950;51.112;6.966;2023-04-15T10:39:45;12.16;60.89
26721;HTU21D;15950;51.112;6.966;2023-04-15T10:42:45;12.37;61.16
26721;HTU21D;15950;51.112;6.966;2023-04-15T10:45:45;11.95;61.34
26721;HTU21D;15950;51.112;6.966;2023-04-15T10:48:50;11.98;61.61
26721;HTU21D;15950;51.112;6.966;2023-04-15T10:51:51;11.95;62.19
26721;HTU21D;15950;51.112;6.966;2023-04-15T10:54:45;11.91;61.86
26721;HTU21D;15950;51.112;6.966;2023-04-15T10:57:45;11.69;62.50
26721;HTU21D;15950;51.112;6.966;2023-04-15T11:00:49;11.99;62.85
26721;HTU21D;15950;51.112;6.966;2023-04-15T11:03:45;11.61;63.21
26721;HTU21D;15950;51.112;6.966;2023-04-15T11:06:45;11.94;63.15
26721;HTU21D;15950;51.112;6.966;2023-04-15T11:09:45;12.03;63.03
26721;HTU21D;15950;51.112;6.966;2023-04-15T11:12:46;12.14;62.80
26721;HTU21D;15950;51.112;6.966;2023-04-15T11:15:46;12.31;62.47
26721;HTU21D;15950;51.112;6.966;2023-04-15T11:18:53;12.25;62.41
26721;HTU21D;15950;51.112;6.966;2023-04-15T11:21:45;12.23;62.56
26721;HTU21D;15950;51.112;6.966;2023-04-15T11:24:48;12.31;62.83
26721;HTU21D;15950;51.112;6.966;2023-04-15T11:27:45;12.16;62.60
26721;HTU21D;15950;51.112;6.966;2023-04-15T11:30:45;12.11;63.17
26721;HTU21D;15950;51.112;6.966;2023-04-15T11:33:54;12.04;63.70
26721;HTU21D;15950;51.112;6.966;2023-04-15T11:36:45;11.92;64.48
26721;HTU21D;15950;51.112;6.966;2023-04-15T11:39:47;12.00;64.86
26721;HTU21D;15950;51.112;6.966;2023-04-15T11:42:45;11.72;65.27
26721;HTU21D;15950;51.112;6.966;2023-04-15T11:45:59;11.85;65.20
26721;HTU21D;15950;51.112;6.966;2023-04-15T11:48:46;12.05;65.37
26721;HTU21D;15950;51.112;6.966;2023-04-15T11:51:45;11.69;66.02
26721;HTU21D;15950;51.112;6.966;2023-04-15T11:54:45;11.63;66.89
26721;HTU21D;15950;51.112;6.966;2023-04-15T11:57:45;11.60;67.35
26721;HTU21D;15950;51.112;6.966;2023-04-15T12:03:46;11.43;67.81
26721;HTU21D;15950;51.112;6.966;2023-04-15T12:06:45;11.42;67.83
26721;HTU21D;15950;51.112;6.966;2023-04-15T12:12:50;11.27;68.12
26721;HTU21D;15950;51.112;6.966;2023-04-15T12:15:48;11.42;68.17
26721;HTU21D;15950;51.112;6.966;2023-04-15T12:18:53;11.44;67.99
26721;HTU21D;15950;51.112;6.966;2023-04-15T12:21:46;11.22;68.21
26721;HTU21D;15950;51.112;6.966;2023-04-15T12:24:45;11.39;67.78
26721;HTU21D;15950;51.112;6.966;2023-04-15T12:27:50;11.19;68.01
26721;HTU21D;15950;51.112;6.966;2023-04-15T12:30:49;11.33;68.07
26721;HTU21D;15950;51.112;6.966;2023-04-15T12:33:47;11.14;68.32
26721;HTU21D;15950;51.112;6.966;2023-04-15T12:36:45;11.14;69.08
26721;HTU21D;15950;51.112;6.966;2023-04-15T12:39:47;11.26;69.03
26721;HTU21D;15950;51.112;6.966;2023-04-15T12:42:45;11.16;69.08
26721;HTU21D;15950;51.112;6.966;2023-04-15T12:45:45;11.22;69.10
26721;HTU21D;15950;51.112;6.966;2023-04-15T12:48:45;11.05;69.32
26721;HTU21D;15950;51.112;6.966;2023-04-15T12:51:46;11.15;69.27
26721;HTU21D;15950;51.112;6.966;2023-04-15T12:54:45;11.21;68.84
26721;HTU21D;15950;51.112;6.966;2023-04-15T12:57:45;11.30;69.18
26721;HTU21D;15950;51.112;6.966;2023-04-15T13:00:45;11.15;69.20
26721;HTU21D;15950;51.112;6.966;2023-04-15T13:03:45;11.23;69.19
26721;HTU21D;15950;51.112;6.966;2023-04-15T13:06:45;11.17;69.25
26721;HTU21D;15950;51.112;6.966;2023-04-15T13:09:45;11.13;69.10
26721;HTU21D;15950;51.112;6.966;2023-04-15T13:12:45;11.00;69.30
26721;HTU21D;15950;51.112;6.966;2023-04-15T13:15:45;10.95;69.39
26721;HTU21D;15950;51.112;6.966;2023-04-15T13:18:45;10.87;69.92
26721;HTU21D;15950;51.112;6.966;2023-04-15T13:21:45;10.88;69.95
26721;HTU21D;15950;51.112;6.966;2023-04-15T13:24:45;10.92;69.88
26721;HTU21D;15950;51.112;6.966;2023-04-15T13:27:45;10.93;69.77
26721;HTU21D;15950;51.112;6.966;2023-04-15T13:30:45;10.92;69.50
26721;HTU21D;15950;51.112;6.966;2023-04-15T13:33:45;10.82;69.54
26721;HTU21D;15950;51.112;6.966;2023-04-15T13:36:45;11.06;69.52
26721;HTU21D;15950;51.112;6.966;2023-04-15T13:39:45;10.99;69.33
26721;HTU21D;15950;51.112;6.966;2023-04-15T13:42:45;11.12;69.39
26721;HTU21D;15950;51.112;6.966;2023-04-15T13:45:45;11.11;69.24
26721;HTU21D;15950;51.112;6.966;2023-04-15T13:48:45;10.92;69.33
26721;HTU21D;15950;51.112;6.966;2023-04-15T13:51:45;11.18;69.93
26721;HTU21D;15950;51.112;6.966;2023-04-15T13:54:45;11.26;69.78
26721;HTU21D;15950;51.112;6.966;2023-04-15T13:57:45;11.06;69.49
26721;HTU21D;15950;51.112;6.966;2023-04-15T14:00:45;11.24;69.49
26721;HTU21D;15950;51.112;6.966;2023-04-15T14:03:45;11.12;70.33
26721;HTU21D;15950;51.112;6.966;2023-04-15T14:06:45;11.10;71.21
26721;HTU21D;15950;51.112;6.966;2023-04-15T14:09:45;10.97;71.58
26721;HTU21D;15950;51.112;6.966;2023-04-15T14:12:45;11.03;72.32
26721;HTU21D;15950;51.112;6.966;2023-04-15T14:15:45;11.05;71.87
26721;HTU21D;15950;51.112;6.966;2023-04-15T14:18:45;11.27;71.58
26721;HTU21D;15950;51.112;6.966;2023-04-15T14:21:45;11.21;71.77
26721;HTU21D;15950;51.112;6.966;2023-04-15T14:24:45;10.93;72.33
26721;HTU21D;15950;51.112;6.966;2023-04-15T14:27:45;10.78;73.33
26721;HTU21D;15950;51.112;6.966;2023-04-15T14:30:45;10.79;74.08
26721;HTU21D;15950;51.112;6.966;2023-04-15T14:33:45;10.86;74.74
26721;HTU21D;15950;51.112;6.966;2023-04-15T14:36:45;10.77;73.91
26721;HTU21D;15950;51.112;6.966;2023-04-15T14:39:45;10.86;74.18
26721;HTU21D;15950;51.112;6.966;2023-04-15T14:42:45;10.88;73.70
26721;HTU21D;15950;51.112;6.966;2023-04-15T14:45:45;10.75;73.64
26721;HTU21D;15950;51.112;6.966;2023-04-15T14:48:45;10.93;74.36
26721;HTU21D;15950;51.112;6.966;2023-04-15T14:51:45;10.82;73.96
26721;HTU21D;15950;51.112;6.966;2023-04-15T14:54:45;10.87;74.60
26721;HTU21D;15950;51.112;6.966;2023-04-15T14:57:45;10.77;75.17
26721;HTU21D;15950;51.112;6.966;2023-04-15T15:00:45;10.81;75.58
26721;HTU21D;15950;51.112;6.966;2023-04-15T15:03:45;10.73;76.17
26721;HTU21D;15950;51.112;6.966;2023-04-15T15:06:45;10.67;76.89
26721;HTU21D;15950;51.112;6.966;2023-04-15T15:09:45;10.61;77.19
26721;HTU21D;15950;51.112;6.966;2023-04-15T15:12:45;10.42;76.82
26721;HTU21D;15950;51.112;6.966;2023-04-15T15:15:45;10.37;77.54
26721;HTU21D;15950;51.112;6.966;2023-04-15T15:18:45;10.36;78.40
26721;HTU21D;15950;51.112;6.966;2023-04-15T15:21:45;10.16;77.92
26721;HTU21D;15950;51.112;6.966;2023-04-15T15:24:45;10.42;79.18
26721;HTU21D;15950;51.112;6.966;2023-04-15T15:27:45;10.50;80.38
26721;HTU21D;15950;51.112;6.966;2023-04-15T15:30:45;10.36;80.05
26721;HTU21D;15950;51.112;6.966;2023-04-15T15:33:45;10.39;80.09
26721;HTU21D;15950;51.112;6.966;2023-04-15T15:36:45;10.33;80.57
26721;HTU21D;15950;51.112;6.966;2023-04-15T15:39:45;10.27;80.36
26721;HTU21D;15950;51.112;6.966;2023-04-15T15:42:45;10.26;80.89
26721;HTU21D;15950;51.112;6.966;2023-04-15T15:45:45;10.08;81.18
26721;HTU21D;15950;51.112;6.966;2023-04-15T15:48:45;9.98;81.17
26721;HTU21D;15950;51.112;6.966;2023-04-15T15:51:45;9.97;81.27
26721;HTU21D;15950;51.112;6.966;2023-04-15T15:54:45;10.18;81.57
26721;HTU21D;15950;51.112;6.966;2023-04-15T15:57:45;10.18;82.04
26721;HTU21D;15950;51.112;6.966;2023-04-15T16:00:45;10.00;81.71
26721;HTU21D;15950;51.112;6.966;2023-04-15T16:03:45;9.97;81.88
26721;HTU21D;15950;51.112;6.966;2023-04-15T16:06:45;10.17;82.13
26721;HTU21D;15950;51.112;6.966;2023-04-15T16:09:45;10.09;82.44
26721;HTU21D;15950;51.112;6.966;2023-04-15T16:12:45;10.09;82.39
26721;HTU21D;15950;51.112;6.966;2023-04-15T16:15:45;10.06;82.32
26721;HTU21D;15950;51.112;6.966;2023-04-15T16:18:45;10.11;81.40
26721;HTU21D;15950;51.112;6.966;2023-04-15T16:21:45;10.02;81.65
26721;HTU21D;15950;51.112;6.966;2023-04-15T16:24:45;10.07;82.13
26721;HTU21D;15950;51.112;6.966;2023-04-15T16:27:45;9.90;82.51
26721;HTU21D;15950;51.112;6.966;2023-04-15T16:30:45;9.81;82.13
26721;HTU21D;15950;51.112;6.966;2023-04-15T16:33:45;9.78;82.68
26721;HTU21D;15950;51.112;6.966;2023-04-15T16:36:45;9.92;82.68
26721;HTU21D;15950;51.112;6.966;2023-04-15T16:39:45;9.88;83.20
26721;HTU21D;15950;51.112;6.966;2023-04-15T16:42:45;9.93;82.88
26721;HTU21D;15950;51.112;6.966;2023-04-15T16:45:45;9.89;82.65
26721;HTU21D;15950;51.112;6.966;2023-04-15T16:48:45;9.84;82.18
26721;HTU21D;15950;51.112;6.966;2023-04-15T16:51:45;9.76;82.33
26721;HTU21D;15950;51.112;6.966;2023-04-15T16:54:45;9.94;82.00
26721;HTU21D;15950;51.112;6.966;2023-04-15T16:57:45;9.79;82.34
26721;HTU21D;15950;51.112;6.966;2023-04-15T17:00:45;9.74;82.02
26721;HTU21D;15950;51.112;6.966;2023-04-15T17:03:45;9.82;81.98
26721;HTU21D;15950;51.112;6.966;2023-04-15T17:06:45;9.75;81.94
26721;HTU21D;15950;51.112;6.966;2023-04-15T17:09:45;9.82;82.05
26721;HTU21D;15950;51.112;6.966;2023-04-15T17:12:45;9.69;81.65
26721;HTU21D;15950;51.112;6.966;2023-04-15T17:15:45;9.76;81.90
26721;HTU21D;15950;51.112;6.966;2023-04-15T17:18:45;9.69;81.58
26721;HTU21D;15950;51.112;6.966;2023-04-15T17:21:45;9.69;81.74
26721;HTU21D;15950;51.112;6.966;2023-04-15T17:24:45;9.68;81.84
26721;HTU21D;15950;51.112;6.966;2023-04-15T17:27:45;9.69;81.93
26721;HTU21D;15950;51.112;6.966;2023-04-15T17:30:45;9.52;82.26
26721;HTU21D;15950;51.112;6.966;2023-04-15T17:33:45;9.41;82.91
26721;HTU21D;15950;51.112;6.966;2023-04-15T17:36:45;9.51;83.20
26721;HTU21D;15950;51.112;6.966;2023-04-15T17:39:45;9.50;83.29
26721;HTU21D;15950;51.112;6.966;2023-04-15T17:42:45;9.55;82.98
26721;HTU21D;15950;51.112;6.966;2023-04-15T17:45:45;9.51;82.69
26721;HTU21D;15950;51.112;6.966;2023-04-15T17:48:45;9.51;82.62
26721;HTU21D;15950;51.112;6.966;2023-04-15T17:51:45;9.45;82.97
26721;HTU21D;15950;51.112;6.966;2023-04-15T17:54:45;9.41;82.70
26721;HTU21D;15950;51.112;6.966;2023-04-15T17:57:45;9.38;82.82
26721;HTU21D;15950;51.112;6.966;2023-04-15T18:00:45;9.61;82.25
26721;HTU21D;15950;51.112;6.966;2023-04-15T18:03:45;9.61;82.36
26721;HTU21D;15950;51.112;6.966;2023-04-15T18:06:45;9.43;83.05
26721;HTU21D;15950;51.112;6.966;2023-04-15T18:09:45;9.47;83.53
26721;HTU21D;15950;51.112;6.966;2023-04-15T18:12:45;9.17;84.91
26721;HTU21D;15950;51.112;6.966;2023-04-15T18:15:45;9.21;86.06
26721;HTU21D;15950;51.112;6.966;2023-04-15T18:18:45;9.21;86.34
26721;HTU21D;15950;51.112;6.966;2023-04-15T18:21:45;9.17;86.42
26721;HTU21D;15950;51.112;6.966;2023-04-15T18:24:45;9.33;86.34
26721;HTU21D;15950;51.112;6.966;2023-04-15T18:27:45;9.29;86.76
26721;HTU21D;15950;51.112;6.966;2023-04-15T18:30:45;9.28;87.31
26721;HTU21D;15950;51.112;6.966;2023-04-15T18:33:45;9.16;87.96
26721;HTU21D;15950;51.112;6.966;2023-04-15T18:36:45;9.01;88.86
26721;HTU21D;15950;51.112;6.966;2023-04-15T18:39:45;8.94;89.57
26721;HTU21D;15950;51.112;6.966;2023-04-15T18:42:45;8.84;90.15
26721;HTU21D;15950;51.112;6.966;2023-04-15T18:45:45;8.93;90.74
26721;HTU21D;15950;51.112;6.966;2023-04-15T18:48:45;8.86;91.11
26721;HTU21D;15950;51.112;6.966;2023-04-15T18:51:45;8.81;91.47
26721;HTU21D;15950;51.112;6.966;2023-04-15T18:54:45;8.85;91.36
26721;HTU21D;15950;51.112;6.966;2023-04-15T18:57:45;9.01;91.40
26721;HTU21D;15950;51.112;6.966;2023-04-15T19:00:45;8.88;91.80
26721;HTU21D;15950;51.112;6.966;2023-04-15T19:03:45;8.93;92.01